METAR Data
IDs: Format: Raw Decoded Include TAF

Data at: 0156 UTC 23 Apr 2021

YPBO 230100Z AUTO 06011KT 9999 // NCD 26/00 Q1019
YPBO 230000Z AUTO 06009KT 9999 // NCD 24/M01 Q1019
YPBO 222300Z AUTO 03009KT 9999 // NCD 19/01 Q1018
YPBO 222200Z AUTO 03009KT 9999 // NCD 18/01 Q1017
YPBO 222100Z AUTO 05008KT 9999 // NCD 18/01 Q1017
YPBO 222000Z AUTO 05005KT 9999 // NCD 16/02 Q1017
YPBO 221900Z AUTO 03008KT 9999 // NCD 18/01 Q1017
YPBO 221800Z AUTO 04007KT 9999 // NCD 19/01 Q1017
YPBO 221700Z AUTO 06004KT 9999 // NCD 19/02 Q1017
YPBO 221600Z AUTO 00000KT 9999 // NCD 19/01 Q1018
YPBO 221500Z AUTO 04006KT 9999 // NCD 21/01 Q1018
YPBO 221400Z AUTO 05005KT 9999 // NCD 21/01 Q1018
YPBO 221300Z AUTO 03004KT 9999 // NCD 23/00 Q1018
YPBO 221200Z AUTO 07006KT 9999 // NCD 23/00 Q1018
YPBO 221100Z AUTO 07007KT 9999 // NCD 26/M01 Q1017
YPBO 221000Z AUTO 07006KT 9999 // NCD 29/M03 Q1016
YPBO 220900Z AUTO 07009KT 9999 // NCD 31/M02 Q1016
YPBO 220800Z AUTO 10007KT 070V130 9999 // NCD 31/M03 Q1015
YPBO 220700Z AUTO 13009KT 9999 // NCD 31/M02 Q1016
YPBO 220600Z AUTO 07009KT 9999 // NCD 32/M01 Q1016
YPBO 220500Z AUTO 11009KT 9999 // NCD 31/M02 Q1017
YPBO 220400Z AUTO 03008KT 010V070 9999 // NCD 31/M01 Q1018
YPBO 220300Z AUTO 06012KT 9999 // NCD 30/M02 Q1019
YPBO 220200Z AUTO 05011KT 9999 // NCD 29/00 Q1019
YPBO 220100Z AUTO 08009KT 9999 // NCD 27/01 Q1019
YPBO 220000Z AUTO 06007KT 9999 // NCD 24/03 Q1019
YPBO 212300Z AUTO 03008KT 9999 // NCD 19/05 Q1018
YPBO 212200Z AUTO 05007KT 9999 // NCD 19/06 Q1018
YPBO 212100Z AUTO 00000KT 9999 // NCD 17/06 Q1017
YPBO 212000Z AUTO 07007KT 9999 // NCD 19/06 Q1017
YPBO 211900Z AUTO 10003KT 9999 // NCD 19/06 Q1017
YPBO 211800Z AUTO 03007KT 9999 // NCD 20/07 Q1017
YPBO 211700Z AUTO 05007KT 9999 // NCD 20/07 Q1017
YPBO 211600Z AUTO 03006KT 9999 // NCD 21/06 Q1018
YPBO 211500Z AUTO 07007KT 9999 // NCD 22/05 Q1018
YPBO 211400Z AUTO 05006KT 9999 // NCD 22/05 Q1018